An Xiu Shan — BRQV — position and weather

sailwx.info

Track history (hours):
 
Tides and Currents Weather Stations Pressure Air Temp Water Temp Dewpoint Dewpoint Depression Visibility Wind Speed Wind Dir Waves Ship Positions

An Xiu Shan

Last reported at 2015-Jul-27 17:09 UTC. Time now 2015-Jul-31 07:22 UTC.
Position N 38°39' E 118°25'.

Length 199 m; draft 12.7 m.

Type: Cargo ship. MMSI: 413195000.

Date/timePositionNaut miles runAvg speedWind from/ knotsBaromVisibWave heightAir tempDewpointWater temp
2015-Jul-27 17:09N 38°39' E 118°25'0 0.0
2015-Jul-26 20:33N 38°39' E 118°25'0 0.0
2015-Jul-26 19:27N 38°39' E 118°25'0 0.0
2015-Jul-26 17:21N 38°39' E 118°25'0 0.0
2015-Jul-26 16:09N 38°39' E 118°25'  
2015-Jul-24 08:03N 38°40' E 119°22'910.4
2015-Jul-24 07:10N 38°40' E 119°34'610.3
2015-Jul-24 06:33N 38°40' E 119°42'126 9.7
2015-Jul-23 17:32N 37°57' E 122°12'2210.2
2015-Jul-23 15:22N 37°45' E 122°36'910.3
2015-Jul-23 14:29N 37°38' E 122°44'3010.3
2015-Jul-23 11:33N 37°09' E 122°53'20 9.9
2015-Jul-23 09:29N 36°48' E 122°53'  
2015-Jul-19 11:15N 35°41' E 120°04'8 9.5
2015-Jul-19 10:23N 35°34' E 119°59'7 8.8
2015-Jul-19 09:33N 35°29' E 119°52'7 1.8
2015-Jul-19 05:30N 35°36' E 119°47'0 0.0
2015-Jul-18 23:24N 35°36' E 119°47'0 0.0
2015-Jul-18 22:30N 35°36' E 119°47'0 0.0
2015-Jul-18 21:18N 35°36' E 119°47'0 0.0
2015-Jul-18 20:24N 35°36' E 119°47'0 0.0
2015-Jul-18 19:18N 35°36' E 119°47'0 0.0
2015-Jul-18 18:12N 35°36' E 119°47'0 0.0
2015-Jul-18 17:30N 35°36' E 119°47'0 0.0
2015-Jul-18 16:24N 35°36' E 119°47'0 0.0
2015-Jul-18 13:30N 35°36' E 119°47'10 0.6
2015-Jul-17 20:30N 35°27' E 119°53'0 0.1
2015-Jul-17 18:06N 35°27' E 119°53'0 0.0
2015-Jul-17 17:30N 35°27' E 119°53'  
Track history (hours):
 
Tides and Currents Weather Stations Pressure Air Temp Water Temp Dewpoint Dewpoint Depression Visibility Wind Speed Wind Dir Waves Ship Positions

An Xiu Shan

Last reported at 2015-Jul-27 17:09 UTC. Time now 2015-Jul-31 07:22 UTC.
Position N 38°39' E 118°25'.

Length 199 m; draft 12.7 m.

Type: Cargo ship. MMSI: 413195000.

Date/timePositionNaut miles runAvg speedWind from/ knotsBaromVisibWave heightAir tempDewpointWater temp
2015-Jul-27 17:09N 38°39' E 118°25'0 0.0
2015-Jul-26 20:33N 38°39' E 118°25'0 0.0
2015-Jul-26 19:27N 38°39' E 118°25'0 0.0
2015-Jul-26 17:21N 38°39' E 118°25'0 0.0
2015-Jul-26 16:09N 38°39' E 118°25'  
2015-Jul-24 08:03N 38°40' E 119°22'910.4
2015-Jul-24 07:10N 38°40' E 119°34'610.3
2015-Jul-24 06:33N 38°40' E 119°42'126 9.7
2015-Jul-23 17:32N 37°57' E 122°12'2210.2
2015-Jul-23 15:22N 37°45' E 122°36'910.3
2015-Jul-23 14:29N 37°38' E 122°44'3010.3
2015-Jul-23 11:33N 37°09' E 122°53'20 9.9
2015-Jul-23 09:29N 36°48' E 122°53'  
2015-Jul-19 11:15N 35°41' E 120°04'8 9.5
2015-Jul-19 10:23N 35°34' E 119°59'7 8.8
2015-Jul-19 09:33N 35°29' E 119°52'7 1.8
2015-Jul-19 05:30N 35°36' E 119°47'0 0.0
2015-Jul-18 23:24N 35°36' E 119°47'0 0.0
2015-Jul-18 22:30N 35°36' E 119°47'0 0.0
2015-Jul-18 21:18N 35°36' E 119°47'0 0.0
2015-Jul-18 20:24N 35°36' E 119°47'0 0.0
2015-Jul-18 19:18N 35°36' E 119°47'0 0.0
2015-Jul-18 18:12N 35°36' E 119°47'0 0.0
2015-Jul-18 17:30N 35°36' E 119°47'0 0.0
2015-Jul-18 16:24N 35°36' E 119°47'0 0.0
2015-Jul-18 13:30N 35°36' E 119°47'10 0.6
2015-Jul-17 20:30N 35°27' E 119°53'0 0.1
2015-Jul-17 18:06N 35°27' E 119°53'0 0.0
2015-Jul-17 17:30N 35°27' E 119°53'  

Dump ship's entire track history